createdAt,value
2023-04-25T00:00:18.436Z,100880.13
2023-04-25T00:02:45.165Z,100870.25
2023-04-25T00:05:12.575Z,100881.81
2023-04-25T00:07:39.592Z,100880.13
2023-04-25T00:10:07.285Z,100871.00
2023-04-25T00:12:35.189Z,100871.56
2023-04-25T00:15:01.912Z,100858.75
2023-04-25T00:17:29.082Z,100853.22
2023-04-25T00:19:56.031Z,100886.56
2023-04-25T00:22:22.661Z,100888.50
2023-04-25T00:24:49.295Z,100881.53
2023-04-25T00:27:16.350Z,100875.06
2023-04-25T00:29:43.023Z,100902.19
2023-04-25T00:32:09.602Z,100884.50
2023-04-25T00:34:36.490Z,100883.91
2023-04-25T00:37:03.286Z,100872.16
2023-04-25T00:39:30.101Z,100882.22
2023-04-25T00:41:56.999Z,100891.09
2023-04-25T00:44:25.093Z,100893.53
2023-04-25T00:46:53.021Z,100906.34
2023-04-25T00:49:19.873Z,100896.38
2023-04-25T00:51:46.475Z,100906.44
2023-04-25T00:54:16.750Z,100904.03
2023-04-25T00:56:43.812Z,100899.69
2023-04-25T00:59:11.113Z,100907.63
2023-04-25T01:01:39.394Z,100895.09
2023-04-25T01:04:06.571Z,100907.50
2023-04-25T01:06:33.794Z,100880.25
2023-04-25T01:09:00.673Z,100893.69
2023-04-25T01:11:27.670Z,100881.31
2023-04-25T01:13:54.234Z,100902.34
2023-04-25T01:16:21.394Z,100898.25
2023-04-25T01:18:49.123Z,100908.06
2023-04-25T01:21:15.889Z,100903.00
2023-04-25T01:23:43.393Z,100905.78
2023-04-25T01:26:12.215Z,100857.56
2023-04-25T01:28:43.129Z,100916.78
2023-04-25T01:31:10.106Z,100888.28
2023-04-25T01:33:37.108Z,100894.06
2023-04-25T01:36:04.079Z,100908.72
2023-04-25T01:38:31.250Z,100926.72
2023-04-25T01:40:58.195Z,100911.94
2023-04-25T01:43:25.404Z,100923.13
2023-04-25T01:45:52.598Z,100926.72
2023-04-25T01:48:19.692Z,100910.13
2023-04-25T01:50:46.896Z,100928.63
2023-04-25T01:53:14.725Z,100937.28
2023-04-25T01:55:41.733Z,100868.25
2023-04-25T01:58:10.738Z,100947.44
2023-04-25T02:00:41.886Z,100928.34
2023-04-25T02:03:09.816Z,100920.66
2023-04-25T02:05:38.578Z,100914.47
2023-04-25T02:08:09.511Z,100921.63
2023-04-25T02:10:37.109Z,100951.63
2023-04-25T02:13:05.465Z,100923.03
2023-04-25T02:15:32.466Z,100917.34
2023-04-25T02:18:01.112Z,100950.28
2023-04-25T02:20:29.702Z,100940.09
2023-04-25T02:22:56.362Z,100934.63
2023-04-25T02:25:23.445Z,100940.94
2023-04-25T02:27:50.226Z,100962.13
2023-04-25T02:30:16.880Z,100955.50
2023-04-25T02:32:44.000Z,100954.09
2023-04-25T02:35:10.777Z,100941.69
2023-04-25T02:37:38.875Z,100954.41
2023-04-25T02:40:06.333Z,100959.09
2023-04-25T02:42:33.300Z,100963.72
2023-04-25T02:44:59.953Z,100949.53
2023-04-25T02:47:26.904Z,100952.59
2023-04-25T02:49:53.712Z,100947.31
2023-04-25T02:52:20.378Z,100957.66
2023-04-25T02:54:47.224Z,100932.59
2023-04-25T02:57:13.791Z,100951.78
2023-04-25T02:59:40.372Z,100965.06
2023-04-25T03:02:07.294Z,100949.88
2023-04-25T03:04:34.574Z,100959.25
2023-04-25T03:07:01.958Z,100956.41
2023-04-25T03:09:28.694Z,100957.34
2023-04-25T03:11:55.245Z,100964.13
2023-04-25T03:14:21.837Z,100940.50
2023-04-25T03:16:48.632Z,100963.38
2023-04-25T03:19:17.080Z,100958.31
2023-04-25T03:21:44.442Z,100948.41
2023-04-25T03:24:12.170Z,100966.00
2023-04-25T03:26:38.758Z,100969.59
2023-04-25T03:29:05.437Z,100979.19
2023-04-25T03:31:32.702Z,100970.97
2023-04-25T03:33:59.334Z,100973.41
2023-04-25T03:36:25.987Z,100977.69
2023-04-25T03:38:52.675Z,100977.09
2023-04-25T03:41:19.260Z,100958.44
2023-04-25T03:43:45.992Z,100984.66
2023-04-25T03:46:12.842Z,100963.19
2023-04-25T03:48:39.475Z,100983.84
2023-04-25T03:51:06.272Z,100982.38
2023-04-25T03:53:33.073Z,100972.47
2023-04-25T03:56:00.212Z,100979.09
2023-04-25T03:58:26.832Z,100987.22
2023-04-25T04:00:53.449Z,100985.00
2023-04-25T04:03:20.204Z,100996.28
2023-04-25T04:05:47.601Z,100998.59
2023-04-25T04:08:14.639Z,100945.50
2023-04-25T04:10:41.417Z,100993.34
2023-04-25T04:13:08.055Z,101015.88
2023-04-25T04:15:35.365Z,101006.94
2023-04-25T04:18:03.878Z,101010.19
2023-04-25T04:20:33.775Z,100960.03
2023-04-25T04:23:00.508Z,101028.41
2023-04-25T04:25:27.330Z,101024.31
2023-04-25T04:27:55.660Z,101040.44
2023-04-25T04:30:25.730Z,100945.03
2023-04-25T04:32:53.106Z,101017.34
2023-04-25T04:35:19.844Z,101044.00
2023-04-25T04:37:47.701Z,101024.72
2023-04-25T04:40:16.725Z,101063.72
2023-04-25T04:42:46.221Z,101053.19
2023-04-25T04:45:13.351Z,101046.44
2023-04-25T04:47:40.632Z,101034.22
2023-04-25T04:50:10.524Z,101046.88
2023-04-25T04:52:38.600Z,101054.44
2023-04-25T04:55:06.834Z,101038.66
2023-04-25T04:57:34.031Z,101039.91
2023-04-25T05:00:00.957Z,101034.44
2023-04-25T05:02:28.004Z,101049.91
2023-04-25T05:04:54.832Z,101082.91
2023-04-25T05:07:21.699Z,101060.44
2023-04-25T05:09:48.350Z,101063.59
2023-04-25T05:12:15.033Z,101082.91
2023-04-25T05:14:41.726Z,101072.66
2023-04-25T05:17:09.501Z,101065.31
2023-04-25T05:19:36.408Z,101084.38
2023-04-25T05:22:03.666Z,101093.09
2023-04-25T05:24:31.539Z,101102.41
2023-04-25T05:26:58.516Z,101100.97
2023-04-25T05:29:25.338Z,101099.94
2023-04-25T05:31:51.997Z,101033.06
2023-04-25T05:34:18.724Z,101110.06
2023-04-25T05:36:45.586Z,101060.56
2023-04-25T05:39:12.537Z,101113.88
2023-04-25T05:41:39.298Z,101113.34
2023-04-25T05:44:06.602Z,101110.88
2023-04-25T05:46:33.361Z,101089.03
2023-04-25T05:49:00.024Z,101124.41
2023-04-25T05:51:27.168Z,101116.59
2023-04-25T05:53:54.113Z,101123.66
2023-04-25T05:56:20.956Z,101126.63
2023-04-25T05:58:48.314Z,101108.19
2023-04-25T06:01:15.277Z,101123.41
2023-04-25T06:03:44.117Z,101122.13
2023-04-25T06:06:11.048Z,101112.25
2023-04-25T06:08:38.790Z,101129.94
2023-04-25T06:11:05.852Z,101075.94
2023-04-25T06:13:32.799Z,101121.09
2023-04-25T06:15:59.462Z,101139.00
2023-04-25T06:18:26.170Z,101133.69
2023-04-25T06:20:52.811Z,101133.03
2023-04-25T06:23:19.443Z,101137.94
2023-04-25T06:25:46.063Z,101133.00
2023-04-25T06:28:13.120Z,101111.81
2023-04-25T06:30:39.769Z,101131.75
2023-04-25T06:33:06.401Z,101156.34
2023-04-25T06:35:33.332Z,101123.59
2023-04-25T06:37:59.926Z,101134.63
2023-04-25T06:40:26.668Z,101110.66
2023-04-25T06:42:53.422Z,101155.16
2023-04-25T06:45:20.013Z,101151.53
2023-04-25T06:47:46.702Z,101144.22
2023-04-25T06:50:13.518Z,101135.78
2023-04-25T06:52:40.166Z,101136.25
2023-04-25T06:55:07.385Z,101150.09
2023-04-25T06:57:34.318Z,101157.81
2023-04-25T07:00:02.292Z,101149.56
2023-04-25T07:02:29.650Z,101154.50
2023-04-25T07:05:00.906Z,101142.41
2023-04-25T07:07:28.117Z,101169.88
2023-04-25T07:09:54.764Z,101137.66
2023-04-25T07:12:21.551Z,101149.72
2023-04-25T07:14:48.218Z,101181.50
2023-04-25T07:17:14.881Z,101182.19
2023-04-25T07:19:41.702Z,101158.38
2023-04-25T07:22:08.356Z,101181.19
2023-04-25T07:24:35.013Z,101178.91
2023-04-25T07:27:02.363Z,101185.06
2023-04-25T07:29:29.029Z,101160.06
2023-04-25T07:31:55.846Z,101165.22
2023-04-25T07:34:22.630Z,101136.22
2023-04-25T07:36:49.455Z,101202.59
2023-04-25T07:39:16.164Z,101187.63
2023-04-25T07:41:42.953Z,101198.34
2023-04-25T07:44:09.560Z,101193.38
2023-04-25T07:46:36.216Z,101208.34
2023-04-25T07:49:03.622Z,101177.81
2023-04-25T07:51:30.295Z,101209.38
2023-04-25T07:53:57.139Z,101207.78
2023-04-25T07:56:24.137Z,101196.66
2023-04-25T07:58:50.968Z,101197.94
2023-04-25T08:01:17.825Z,101206.28
2023-04-25T08:03:45.097Z,101222.50
2023-04-25T08:06:12.523Z,101233.78
2023-04-25T08:08:39.310Z,101230.34
2023-04-25T08:11:06.118Z,101248.69
2023-04-25T08:13:32.702Z,101244.03
2023-04-25T08:15:59.362Z,101265.19
2023-04-25T08:18:26.125Z,101232.59
2023-04-25T08:20:52.793Z,101249.44
2023-04-25T08:23:19.398Z,101232.34
2023-04-25T08:25:46.111Z,101229.88
2023-04-25T08:28:12.736Z,101250.16
2023-04-25T08:30:39.369Z,101250.47
2023-04-25T08:33:06.306Z,101262.28
2023-04-25T08:35:34.184Z,101293.28
2023-04-25T08:38:01.815Z,101314.53
2023-04-25T08:40:31.214Z,101310.59
2023-04-25T08:42:58.911Z,101323.38
2023-04-25T08:45:28.937Z,101322.31
2023-04-25T08:47:58.388Z,101254.88
2023-04-25T08:50:27.252Z,101293.31
2023-04-25T08:52:55.482Z,101282.66
2023-04-25T08:55:23.650Z,101345.38
2023-04-25T08:57:51.515Z,101347.53
2023-04-25T09:00:19.416Z,101337.53
2023-04-25T09:02:47.879Z,101312.28
2023-04-25T09:05:15.621Z,101322.88
2023-04-25T09:07:42.251Z,101334.69
2023-04-25T09:10:09.673Z,101309.50
2023-04-25T09:12:37.681Z,101295.94
2023-04-25T09:15:08.445Z,101341.00
2023-04-25T09:17:35.290Z,101312.47
2023-04-25T09:20:14.330Z,101328.06
2023-04-25T09:22:41.419Z,101333.59
2023-04-25T09:25:13.534Z,101330.69
2023-04-25T09:27:54.160Z,101306.25
2023-04-25T09:30:30.000Z,101323.03
2023-04-25T09:33:11.934Z,101304.72
2023-04-25T09:35:43.988Z,101321.06
2023-04-25T09:38:17.067Z,101302.78
2023-04-25T09:40:46.262Z,101318.41
2023-04-25T09:43:27.168Z,101316.22
2023-04-25T09:45:59.000Z,101335.47
2023-04-25T09:48:27.078Z,101338.59
2023-04-25T09:51:10.577Z,101371.75
2023-04-25T09:53:40.224Z,101366.63
2023-04-25T09:56:08.818Z,101330.84
2023-04-25T09:58:37.830Z,101346.34
2023-04-25T10:01:07.609Z,101306.22
2023-04-25T10:03:36.418Z,101380.50
2023-04-25T10:06:09.493Z,101366.78
2023-04-25T10:08:37.942Z,101361.25
2023-04-25T10:11:06.951Z,101374.78
2023-04-25T10:13:34.971Z,101374.19
2023-04-25T10:16:03.741Z,101372.75
2023-04-25T10:18:31.585Z,101367.84
2023-04-25T10:21:01.053Z,101345.88
2023-04-25T10:23:30.310Z,101339.13
2023-04-25T10:25:57.755Z,101350.38
2023-04-25T10:28:24.998Z,101320.34
2023-04-25T10:31:02.110Z,101367.13
2023-04-25T10:33:36.310Z,101363.03
2023-04-25T10:36:13.608Z,101335.78
2023-04-25T10:38:41.412Z,101370.25
2023-04-25T10:41:10.140Z,101370.25
2023-04-25T10:43:39.598Z,101388.56
2023-04-25T10:46:26.903Z,101360.47
2023-04-25T10:48:55.955Z,101347.34
2023-04-25T10:51:29.549Z,101350.03
2023-04-25T10:54:04.439Z,101384.22
2023-04-25T10:56:40.812Z,101376.97
2023-04-25T10:59:15.398Z,101339.63
2023-04-25T11:01:42.221Z,101385.63
2023-04-25T11:04:39.959Z,101385.69
2023-04-25T11:07:38.630Z,101392.53
2023-04-25T11:10:06.210Z,101392.34
2023-04-25T11:12:33.466Z,101391.22
2023-04-25T11:15:08.337Z,101397.47
2023-04-25T11:17:35.699Z,101396.50
2023-04-25T11:20:02.500Z,101431.31
2023-04-25T11:22:29.732Z,101410.69
2023-04-25T11:24:56.434Z,101425.88
2023-04-25T11:27:23.232Z,101421.69
2023-04-25T11:29:49.856Z,101399.50
2023-04-25T11:32:19.787Z,101383.50
2023-04-25T11:34:47.941Z,101421.06
2023-04-25T11:37:15.599Z,101413.63
2023-04-25T11:39:47.291Z,101434.84
2023-04-25T11:42:14.365Z,101423.50
2023-04-25T11:44:41.965Z,101427.75
2023-04-25T11:47:08.696Z,101404.22
2023-04-25T11:49:36.736Z,101366.88
2023-04-25T11:52:03.869Z,101442.03
2023-04-25T11:54:30.641Z,101416.50
2023-04-25T11:56:57.740Z,101445.19
2023-04-25T11:59:26.359Z,101441.59
2023-04-25T12:01:53.084Z,101433.16
2023-04-25T12:04:24.736Z,101458.69
2023-04-25T12:06:55.212Z,101448.47
2023-04-25T12:09:33.524Z,101459.91
2023-04-25T12:12:04.300Z,101431.19
2023-04-25T12:14:33.486Z,101444.25
2023-04-25T12:17:01.798Z,101447.13
2023-04-25T12:19:34.659Z,101425.44
2023-04-25T12:22:02.207Z,101442.78
2023-04-25T12:24:29.182Z,101445.03
2023-04-25T12:27:06.108Z,101453.34
2023-04-25T12:29:48.616Z,101441.06
2023-04-25T12:32:17.810Z,101446.03
2023-04-25T12:34:44.708Z,101464.00
2023-04-25T12:37:11.713Z,101444.84
2023-04-25T12:39:38.597Z,101436.63
2023-04-25T12:42:07.564Z,101455.09
2023-04-25T12:44:36.085Z,101482.81
2023-04-25T12:47:04.281Z,101493.44
2023-04-25T12:49:31.525Z,101479.16
2023-04-25T12:51:58.294Z,101481.34
2023-04-25T12:54:25.762Z,101489.28
2023-04-25T12:56:52.473Z,101487.44
2023-04-25T12:59:19.560Z,101491.22
2023-04-25T13:01:46.663Z,101453.22
2023-04-25T13:04:13.645Z,101426.50
2023-04-25T13:06:40.582Z,101481.22
2023-04-25T13:09:08.033Z,101413.16
2023-04-25T13:11:34.650Z,101483.84
2023-04-25T13:14:02.108Z,101481.69
2023-04-25T13:16:28.993Z,101488.63
2023-04-25T13:18:57.401Z,101487.06
2023-04-25T13:21:24.291Z,101487.13
2023-04-25T13:23:52.169Z,101454.78
2023-04-25T13:26:19.065Z,101483.75
2023-04-25T13:28:45.872Z,101488.94
2023-04-25T13:31:13.030Z,101483.44
2023-04-25T13:33:39.658Z,101490.53
2023-04-25T13:36:06.698Z,101500.66
2023-04-25T13:38:33.595Z,101462.81
2023-04-25T13:41:00.629Z,101506.31
2023-04-25T13:43:27.277Z,101505.22
2023-04-25T13:45:54.083Z,101498.97
2023-04-25T13:48:21.189Z,101500.88
2023-04-25T13:50:48.054Z,101494.81
2023-04-25T13:53:14.887Z,101510.22
2023-04-25T13:55:41.518Z,101499.84
2023-04-25T13:58:09.075Z,101515.13
2023-04-25T14:00:40.694Z,101523.59
2023-04-25T14:03:08.844Z,101502.84
2023-04-25T14:05:41.199Z,101519.25
2023-04-25T14:08:09.621Z,101530.97
2023-04-25T14:10:37.042Z,101535.28
2023-04-25T14:13:04.674Z,101537.63
2023-04-25T14:15:33.214Z,101523.84
2023-04-25T14:18:01.355Z,101532.28
2023-04-25T14:20:28.569Z,101517.91
2023-04-25T14:22:57.081Z,101536.78
2023-04-25T14:25:24.398Z,101536.56
2023-04-25T14:27:51.321Z,101484.00
2023-04-25T14:30:19.513Z,101508.59
2023-04-25T14:32:46.786Z,101499.56
2023-04-25T14:35:13.863Z,101526.69
2023-04-25T14:37:41.137Z,101549.00
2023-04-25T14:40:13.074Z,101541.75
2023-04-25T14:42:40.811Z,101526.41
2023-04-25T14:45:09.637Z,101531.59
2023-04-25T14:47:39.885Z,101534.81
2023-04-25T14:50:07.904Z,101558.69
2023-04-25T14:52:34.671Z,101538.69
2023-04-25T14:55:05.877Z,101554.66
2023-04-25T14:57:33.847Z,101472.13
2023-04-25T15:00:01.237Z,101558.03
2023-04-25T15:02:29.484Z,101507.38
2023-04-25T15:04:59.026Z,101568.13
2023-04-25T15:07:25.788Z,101552.16
2023-04-25T15:09:54.392Z,101558.69
2023-04-25T15:12:21.680Z,101565.69
2023-04-25T15:14:48.360Z,101572.53
2023-04-25T15:17:15.867Z,101586.50
2023-04-25T15:19:42.535Z,101564.13
2023-04-25T15:22:09.413Z,101521.03
2023-04-25T15:24:36.378Z,101560.38
2023-04-25T15:27:03.928Z,101579.09
2023-04-25T15:29:31.030Z,101570.53
2023-04-25T15:31:58.223Z,101581.19
2023-04-25T15:34:26.834Z,101588.50
2023-04-25T15:36:53.858Z,101559.75
2023-04-25T15:39:20.867Z,101572.34
2023-04-25T15:41:47.885Z,101582.88
2023-04-25T15:44:15.307Z,101605.72
2023-04-25T15:46:42.399Z,101581.31
2023-04-25T15:49:09.738Z,101585.94
2023-04-25T15:51:37.311Z,101589.25
2023-04-25T15:54:04.167Z,101556.09
2023-04-25T15:56:30.806Z,101569.78
2023-04-25T15:58:57.546Z,101564.44
2023-04-25T16:01:26.179Z,101568.94
2023-04-25T16:03:53.505Z,101566.47
2023-04-25T16:06:20.870Z,101544.34
2023-04-25T16:08:47.521Z,101562.72
2023-04-25T16:11:14.879Z,101577.84
2023-04-25T16:13:41.755Z,101591.59
2023-04-25T16:16:09.013Z,101566.47
2023-04-25T16:18:35.890Z,101575.00
2023-04-25T16:21:03.266Z,101554.03
2023-04-25T16:23:30.045Z,101579.59
2023-04-25T16:25:56.891Z,101510.16
2023-04-25T16:28:23.833Z,101571.16
2023-04-25T16:30:50.514Z,101584.25
2023-04-25T16:33:19.787Z,101591.03
2023-04-25T16:35:46.576Z,101594.72
2023-04-25T16:38:13.627Z,101601.22
2023-04-25T16:40:40.722Z,101599.84
2023-04-25T16:43:07.843Z,101605.34
2023-04-25T16:45:34.485Z,101602.09
2023-04-25T16:48:01.151Z,101604.44
2023-04-25T16:50:28.068Z,101612.88
2023-04-25T16:52:54.747Z,101606.84
2023-04-25T16:55:21.667Z,101614.13
2023-04-25T16:57:48.470Z,101612.00
2023-04-25T17:00:15.835Z,101597.00
2023-04-25T17:02:42.527Z,101610.03
2023-04-25T17:05:10.616Z,101601.06
2023-04-25T17:07:37.768Z,101610.97
2023-04-25T17:10:04.844Z,101613.94
2023-04-25T17:12:32.101Z,101607.59
2023-04-25T17:15:00.345Z,101619.44
2023-04-25T17:17:27.791Z,101599.34
2023-04-25T17:19:54.651Z,101616.69
2023-04-25T17:22:22.381Z,101604.84
2023-04-25T17:24:49.248Z,101624.53
2023-04-25T17:27:16.206Z,101627.69
2023-04-25T17:29:43.012Z,101595.53
2023-04-25T17:32:10.379Z,101635.06
2023-04-25T17:34:40.182Z,101624.69
2023-04-25T17:37:08.093Z,101625.53
2023-04-25T17:39:34.715Z,101639.19
2023-04-25T17:42:02.821Z,101606.88
2023-04-25T17:44:29.488Z,101625.91
2023-04-25T17:46:56.106Z,101647.06
2023-04-25T17:49:22.893Z,101637.84
2023-04-25T17:51:49.516Z,101645.22
2023-04-25T17:54:16.352Z,101645.41
2023-04-25T17:56:44.861Z,101652.88
2023-04-25T17:59:11.456Z,101647.25
2023-04-25T18:01:38.143Z,101662.91
2023-04-25T18:04:05.708Z,101659.72
2023-04-25T18:06:33.105Z,101642.31
2023-04-25T18:08:59.817Z,101647.66
2023-04-25T18:11:26.770Z,101663.22
2023-04-25T18:13:54.065Z,101674.81
2023-04-25T18:16:20.946Z,101685.38
2023-04-25T18:18:53.627Z,101645.44
2023-04-25T18:21:20.787Z,101667.41
2023-04-25T18:23:47.708Z,101678.50
2023-04-25T18:26:15.993Z,101676.34
2023-04-25T18:28:42.787Z,101604.28
2023-04-25T18:31:09.629Z,101683.50
2023-04-25T18:33:36.617Z,101663.34
2023-04-25T18:36:03.351Z,101684.72
2023-04-25T18:41:10.768Z,101693.78
2023-04-25T18:43:46.254Z,101713.91
2023-04-25T18:46:13.209Z,101714.88
2023-04-25T18:48:39.856Z,101696.22
2023-04-25T18:51:06.720Z,101676.97
2023-04-25T18:53:33.501Z,101729.50
2023-04-25T18:56:00.416Z,101715.97
2023-04-25T18:58:27.156Z,101748.41
2023-04-25T19:00:53.990Z,101735.44
2023-04-25T19:03:21.931Z,101738.88
2023-04-25T19:05:48.707Z,101707.56
2023-04-25T19:08:15.555Z,101720.84
2023-04-25T19:10:42.358Z,101717.72
2023-04-25T19:13:09.556Z,101715.84
2023-04-25T19:15:36.281Z,101719.41
2023-04-25T19:18:03.071Z,101729.75
2023-04-25T19:20:29.811Z,101706.91
2023-04-25T19:22:56.900Z,101730.97
2023-04-25T19:25:24.788Z,101738.94
2023-04-25T19:27:51.720Z,101730.63
2023-04-25T19:30:18.564Z,101740.06
2023-04-25T19:32:45.904Z,101736.66
2023-04-25T19:35:13.484Z,101710.63
2023-04-25T19:37:46.079Z,101717.22
2023-04-25T19:40:14.560Z,101746.94
2023-04-25T19:42:41.434Z,101645.59
2023-04-25T19:45:08.830Z,101745.25
2023-04-25T19:47:38.613Z,101732.31
2023-04-25T19:50:09.580Z,101726.56
2023-04-25T19:52:37.399Z,101743.63
2023-04-25T19:55:05.155Z,101741.16
2023-04-25T19:57:37.777Z,101726.06
2023-04-25T20:00:17.391Z,101734.75
2023-04-25T20:02:45.785Z,101747.47
2023-04-25T20:05:15.107Z,101707.06
2023-04-25T20:07:42.466Z,101746.22
2023-04-25T20:10:12.621Z,101747.28
2023-04-25T20:12:42.676Z,101726.06
2023-04-25T20:15:11.577Z,101751.72
2023-04-25T20:17:40.405Z,101746.63
2023-04-25T20:20:08.330Z,101741.84
2023-04-25T20:22:38.826Z,101713.31
2023-04-25T20:25:08.129Z,101752.88
2023-04-25T20:27:34.867Z,101702.06
2023-04-25T20:30:05.042Z,101729.09
2023-04-25T20:32:34.722Z,101742.88
2023-04-25T20:35:03.871Z,101751.69
2023-04-25T20:37:34.582Z,101671.66
2023-04-25T20:40:03.834Z,101734.75
2023-04-25T20:42:32.058Z,101735.78
2023-04-25T20:44:58.652Z,101741.78
2023-04-25T20:47:25.481Z,101746.31
2023-04-25T20:49:52.340Z,101714.06
2023-04-25T20:52:19.074Z,101728.38
2023-04-25T20:54:50.541Z,101745.66
2023-04-25T20:57:17.697Z,101744.75
2023-04-25T20:59:44.815Z,101748.47
2023-04-25T21:02:14.939Z,101742.59
2023-04-25T21:04:44.282Z,101740.16
2023-04-25T21:07:14.544Z,101706.38
2023-04-25T21:09:42.582Z,101736.28
2023-04-25T21:12:09.312Z,101730.44
2023-04-25T21:14:35.906Z,101724.53
2023-04-25T21:17:04.149Z,101698.44
2023-04-25T21:19:31.109Z,101713.75
2023-04-25T21:21:58.406Z,101737.88
2023-04-25T21:24:27.318Z,101737.22
2023-04-25T21:26:54.136Z,101730.59
2023-04-25T21:29:20.782Z,101705.09
2023-04-25T21:31:47.499Z,101742.97
2023-04-25T21:34:14.382Z,101740.81
2023-04-25T21:36:41.388Z,101749.63
2023-04-25T21:39:08.097Z,101745.28
2023-04-25T21:41:37.482Z,101716.47
2023-04-25T21:44:04.497Z,101752.56
2023-04-25T21:46:31.229Z,101756.13
2023-04-25T21:48:58.005Z,101683.94
2023-04-25T21:51:24.852Z,101737.41
2023-04-25T21:53:51.560Z,101733.09
2023-04-25T21:56:18.265Z,101746.84
2023-04-25T21:58:45.595Z,101746.06
2023-04-25T22:01:12.336Z,101726.59
2023-04-25T22:03:39.250Z,101713.13
2023-04-25T22:06:05.986Z,101761.03
2023-04-25T22:08:32.608Z,101753.47
2023-04-25T22:11:00.539Z,101768.09
2023-04-25T22:13:29.019Z,101769.25
2023-04-25T22:15:55.780Z,101778.03
2023-04-25T22:18:22.710Z,101779.59
2023-04-25T22:20:49.787Z,101770.94
2023-04-25T22:23:17.125Z,101758.78
2023-04-25T22:25:45.222Z,101765.25
2023-04-25T22:28:13.047Z,101764.63
2023-04-25T22:30:39.828Z,101767.88
2023-04-25T22:33:06.638Z,101752.25
2023-04-25T22:35:33.289Z,101757.25
2023-04-25T22:38:00.120Z,101750.41
2023-04-25T22:40:27.211Z,101734.94
2023-04-25T22:42:54.000Z,101760.75
2023-04-25T22:45:20.936Z,101721.50
2023-04-25T22:47:47.908Z,101748.84
2023-04-25T22:50:16.661Z,101747.53
2023-04-25T22:52:43.839Z,101733.84
2023-04-25T22:55:12.480Z,101748.63
2023-04-25T22:57:40.282Z,101777.00
2023-04-25T23:00:15.296Z,101780.00
2023-04-25T23:02:46.732Z,101783.63
2023-04-25T23:05:14.054Z,101764.44
2023-04-25T23:07:42.405Z,101784.16
2023-04-25T23:10:09.424Z,101784.53
2023-04-25T23:12:36.618Z,101778.66
2023-04-25T23:15:05.198Z,101775.59
2023-04-25T23:17:32.173Z,101769.03
2023-04-25T23:19:58.804Z,101770.72
2023-04-25T23:22:25.540Z,101765.78
2023-04-25T23:24:52.234Z,101772.72
2023-04-25T23:27:18.959Z,101762.66
2023-04-25T23:29:54.786Z,101790.19
2023-04-25T23:32:22.362Z,101772.25
2023-04-25T23:34:49.266Z,101777.44
2023-04-25T23:37:16.182Z,101761.41
2023-04-25T23:39:49.277Z,101769.91
2023-04-25T23:42:16.314Z,101791.91
2023-04-25T23:44:42.960Z,101776.56
2023-04-25T23:47:09.931Z,101766.22
2023-04-25T23:49:36.556Z,101764.44
2023-04-25T23:52:04.016Z,101786.66
2023-04-25T23:54:30.752Z,101678.03
2023-04-25T23:56:57.402Z,101778.84
2023-04-25T23:59:24.888Z,101790.00
